Time;durP1;ratioP1;P1;durP2;ratioP2;P2;SDS_P1;SDS_P2;PMS_P1;PMS_P2;Temp;Humidity;BMP_temperature;BMP_pressure;BME280_temperature;BME280_humidity;BME280_pressure;Samples;Min_cycle;Max_cycle;Signal;HPM_P1;HPM_P2
2021/10/18 00:00:26;;;;;;;16.88;14.05;;;10.50;94.10;;;;;;5014165;28;20053;-62
2021/10/18 00:02:52;;;;;;;17.95;13.13;;;10.50;94.10;;;;;;5015133;28;20109;-62
2021/10/18 00:05:17;;;;;;;17.58;13.32;;;10.50;94.20;;;;;;5015071;28;20405;-62
2021/10/18 00:07:43;;;;;;;17.98;13.52;;;10.50;94.20;;;;;;5014974;28;20040;-62
2021/10/18 00:10:10;;;;;;;18.75;13.52;;;10.50;94.30;;;;;;5014876;28;20033;-62
2021/10/18 00:12:37;;;;;;;19.35;13.63;;;10.50;94.30;;;;;;5014851;28;20075;-62
2021/10/18 00:15:05;;;;;;;20.08;14.13;;;10.50;94.40;;;;;;5014691;28;20064;-62
2021/10/18 00:17:31;;;;;;;17.20;14.02;;;10.50;94.40;;;;;;5014559;28;20474;-62
2021/10/18 00:19:57;;;;;;;17.92;13.85;;;10.50;94.40;;;;;;5014707;28;20042;-62
2021/10/18 00:22:22;;;;;;;18.00;12.90;;;10.50;94.40;;;;;;5014835;28;20030;-63
2021/10/18 00:24:48;;;;;;;18.75;14.23;;;10.50;94.40;;;;;;5014566;28;20018;-62
2021/10/18 00:27:13;;;;;;;20.05;14.77;;;10.50;94.40;;;;;;4997109;28;20029;-63
2021/10/18 00:29:39;;;;;;;16.52;13.93;;;10.50;94.50;;;;;;5014465;28;20026;-62
2021/10/18 00:32:05;;;;;;;18.63;14.02;;;10.40;94.60;;;;;;5014364;28;20084;-62
2021/10/18 00:34:30;;;;;;;18.50;13.80;;;10.40;94.70;;;;;;5014473;28;20034;-62
2021/10/18 00:36:56;;;;;;;17.13;12.18;;;10.40;94.70;;;;;;5014385;28;20084;-62
2021/10/18 00:39:21;;;;;;;18.60;13.55;;;10.40;94.70;;;;;;5014482;28;20032;-62
2021/10/18 00:41:47;;;;;;;15.25;12.02;;;10.40;94.70;;;;;;5014353;28;20478;-62
2021/10/18 00:44:12;;;;;;;13.95;11.77;;;10.40;94.60;;;;;;5014165;28;20029;-62
2021/10/18 00:46:38;;;;;;;13.93;11.82;;;10.50;94.60;;;;;;5014153;28;20026;-62
2021/10/18 00:49:03;;;;;;;14.05;11.18;;;10.50;94.50;;;;;;4996629;28;20022;-62
2021/10/18 00:51:29;;;;;;;13.38;10.38;;;10.50;94.50;;;;;;5014248;28;20367;-62
2021/10/18 00:53:58;;;;;;;13.20;11.00;;;10.50;94.50;;;;;;5014045;28;20521;-62
2021/10/18 00:56:25;;;;;;;13.50;9.98;;;10.50;94.40;;;;;;5014117;28;20098;-62
2021/10/18 00:58:51;;;;;;;13.20;10.00;;;10.50;94.40;;;;;;5013936;28;20026;-62
2021/10/18 01:01:17;;;;;;;14.05;10.27;;;10.50;94.40;;;;;;5013379;28;20060;-63
2021/10/18 01:03:43;;;;;;;12.25;10.20;;;10.50;94.40;;;;;;5014126;28;20022;-62
2021/10/18 01:06:09;;;;;;;14.35;10.73;;;10.50;94.40;;;;;;5013916;28;20498;-62
2021/10/18 01:08:35;;;;;;;14.30;11.65;;;10.50;94.50;;;;;;5029124;28;20088;-62
2021/10/18 01:11:01;;;;;;;14.32;10.73;;;10.50;94.50;;;;;;5012872;28;20026;-62
2021/10/18 01:13:26;;;;;;;13.13;9.75;;;10.50;94.50;;;;;;4995810;28;20032;-62
2021/10/18 01:15:53;;;;;;;15.18;11.77;;;10.50;94.50;;;;;;5013237;28;20053;-62
2021/10/18 01:18:18;;;;;;;19.33;12.35;;;10.40;94.50;;;;;;5013739;28;20046;-62
2021/10/18 01:20:44;;;;;;;17.15;13.73;;;10.40;94.60;;;;;;5028931;28;20555;-62
2021/10/18 01:23:11;;;;;;;17.90;13.90;;;10.30;94.60;;;;;;5013789;28;20448;-62
2021/10/18 01:25:37;;;;;;;17.92;12.75;;;10.30;94.80;;;;;;5028791;28;20034;-62
2021/10/18 01:28:04;;;;;;;15.50;13.20;;;10.30;94.90;;;;;;5013343;28;20045;-62
2021/10/18 01:30:30;;;;;;;18.80;13.55;;;10.30;94.90;;;;;;5012974;28;20050;-62
2021/10/18 01:32:56;;;;;;;18.17;14.43;;;10.20;95.00;;;;;;5028785;28;20022;-62
2021/10/18 01:35:22;;;;;;;16.98;13.75;;;10.20;95.00;;;;;;5013379;28;20388;-62
2021/10/18 01:37:49;;;;;;;18.30;13.80;;;10.20;95.10;;;;;;5013478;28;20026;-62
2021/10/18 01:40:17;;;;;;;17.60;14.63;;;10.10;95.10;;;;;;5013567;28;20022;-62
2021/10/18 01:42:43;;;;;;;18.80;14.75;;;10.10;95.20;;;;;;5028463;28;20478;-63
2021/10/18 01:45:11;;;;;;;17.30;13.70;;;10.10;95.30;;;;;;4995561;28;20033;-62
2021/10/18 01:47:37;;;;;;;19.38;14.77;;;10.10;95.30;;;;;;5013273;28;20069;-62
2021/10/18 01:50:13;;;;;;;16.85;14.38;;;10.10;95.30;;;;;;5013319;28;20420;-62
2021/10/18 01:52:40;;;;;;;18.70;13.70;;;10.10;95.30;;;;;;5013199;28;20026;-62
2021/10/18 01:55:06;;;;;;;16.90;13.07;;;10.00;95.30;;;;;;5013264;28;20109;-62
2021/10/18 01:57:32;;;;;;;17.90;14.23;;;10.00;95.30;;;;;;5011796;28;20053;-62
2021/10/18 01:59:57;;;;;;;13.02;11.38;;;10.00;95.30;;;;;;5013170;28;20038;-62
2021/10/18 02:02:23;;;;;;;16.52;12.98;;;10.00;95.30;;;;;;5011802;28;20032;-62
2021/10/18 02:04:49;;;;;;;16.50;11.98;;;10.00;95.30;;;;;;5012989;28;20028;-62
2021/10/18 02:07:14;;;;;;;17.60;13.20;;;10.00;95.30;;;;;;5013127;28;20022;-62
2021/10/18 02:09:40;;;;;;;18.77;14.45;;;10.00;95.30;;;;;;5012860;28;20026;-62
2021/10/18 02:12:06;;;;;;;14.93;12.55;;;10.00;95.40;;;;;;5012908;28;20034;-62
2021/10/18 02:14:32;;;;;;;17.50;13.13;;;10.00;95.40;;;;;;5012957;28;20033;-62
2021/10/18 02:16:57;;;;;;;15.30;12.77;;;10.00;95.40;;;;;;4995394;28;20053;-62
2021/10/18 02:19:23;;;;;;;18.35;13.20;;;10.10;95.50;;;;;;5013012;28;20064;-62
2021/10/18 02:21:48;;;;;;;16.35;12.90;;;10.00;95.50;;;;;;5013013;28;20030;-62
2021/10/18 02:24:14;;;;;;;18.02;13.85;;;10.10;95.50;;;;;;5010385;28;20113;-62
2021/10/18 02:26:39;;;;;;;17.77;13.77;;;10.00;95.60;;;;;;4997217;28;20451;-62
2021/10/18 02:29:05;;;;;;;20.00;15.10;;;10.00;95.70;;;;;;4997339;28;20116;-62
2021/10/18 02:31:30;;;;;;;18.58;14.73;;;10.00;95.80;;;;;;4997136;28;20037;-62
2021/10/18 02:33:56;;;;;;;21.90;15.90;;;9.90;95.90;;;;;;4997181;28;20091;-62
2021/10/18 02:36:21;;;;;;;23.08;16.65;;;9.90;96.00;;;;;;4997212;28;20034;-62
2021/10/18 02:38:47;;;;;;;19.70;16.52;;;9.80;96.10;;;;;;4997061;28;20105;-62
2021/10/18 02:41:12;;;;;;;19.00;15.75;;;9.70;96.20;;;;;;4995907;28;20031;-62
2021/10/18 02:43:38;;;;;;;23.00;16.02;;;9.60;96.40;;;;;;4996984;28;20038;-62
2021/10/18 02:46:03;;;;;;;20.02;15.25;;;9.60;96.50;;;;;;4995784;28;20037;-62
2021/10/18 02:48:29;;;;;;;21.40;16.33;;;9.50;96.60;;;;;;4996837;28;20077;-62
2021/10/18 02:50:55;;;;;;;23.42;16.23;;;9.50;96.80;;;;;;4996791;28;20033;-62
2021/10/18 02:53:21;;;;;;;20.17;15.73;;;9.50;96.90;;;;;;5004780;28;20097;-62
2021/10/18 02:55:46;;;;;;;19.50;16.45;;;9.40;97.00;;;;;;5016221;28;20080;-62
2021/10/18 02:58:12;;;;;;;21.30;16.13;;;9.40;97.10;;;;;;5016349;28;20033;-62
2021/10/18 03:00:38;;;;;;;20.30;16.27;;;9.40;97.10;;;;;;5014908;28;20116;-62
2021/10/18 03:03:08;;;;;;;20.63;16.60;;;9.40;97.20;;;;;;5016130;28;20030;-62
2021/10/18 03:05:33;;;;;;;20.55;16.35;;;9.40;97.30;;;;;;5016301;28;20025;-62
2021/10/18 03:07:59;;;;;;;20.45;15.05;;;9.40;97.40;;;;;;5016567;28;20030;-62
2021/10/18 03:10:24;;;;;;;20.27;15.77;;;9.40;97.40;;;;;;5014609;28;20116;-62
2021/10/18 03:12:50;;;;;;;20.67;16.00;;;9.40;97.50;;;;;;5016107;28;20033;-62
2021/10/18 03:15:16;;;;;;;19.15;15.65;;;9.40;97.60;;;;;;4998712;28;20075;-62
2021/10/18 03:17:41;;;;;;;22.58;16.83;;;9.40;97.60;;;;;;5015924;28;20486;-62
2021/10/18 03:20:08;;;;;;;24.88;16.48;;;9.40;97.70;;;;;;5015961;28;20147;-62
2021/10/18 03:22:36;;;;;;;20.70;16.55;;;9.40;97.70;;;;;;5015969;28;20428;-62
2021/10/18 03:25:02;;;;;;;27.23;17.88;;;9.40;97.90;;;;;;5014556;28;20030;-62
2021/10/18 03:27:28;;;;;;;25.08;17.08;;;9.40;98.00;;;;;;5015839;28;20029;-62
2021/10/18 03:29:53;;;;;;;23.38;17.70;;;9.40;98.40;;;;;;5015730;28;20026;-62
2021/10/18 03:32:19;;;;;;;22.65;18.35;;;9.30;98.20;;;;;;5014248;28;20049;-62
2021/10/18 03:34:44;;;;;;;21.88;16.80;;;9.30;98.30;;;;;;5014311;28;20018;-62
2021/10/18 03:37:10;;;;;;;20.80;15.93;;;9.30;98.30;;;;;;5015687;28;20080;-62
2021/10/18 03:39:36;;;;;;;23.38;17.45;;;9.30;98.30;;;;;;5015490;28;20022;-62
2021/10/18 03:42:01;;;;;;;22.17;17.27;;;9.30;98.40;;;;;;5014487;28;20037;-62
2021/10/18 03:44:27;;;;;;;23.70;16.65;;;9.20;98.30;;;;;;5015545;28;20033;-62
2021/10/18 03:46:53;;;;;;;24.73;17.33;;;9.20;98.30;;;;;;5015493;28;20037;-62
2021/10/18 03:49:18;;;;;;;25.35;17.85;;;9.20;98.40;;;;;;5015279;28;20382;-62
2021/10/18 03:51:44;;;;;;;25.08;17.02;;;9.10;98.40;;;;;;5015368;28;20084;-62
2021/10/18 03:54:09;;;;;;;21.70;16.63;;;9.10;98.40;;;;;;5015146;28;20479;-62
2021/10/18 03:56:35;;;;;;;25.52;17.35;;;9.00;98.40;;;;;;5015343;28;20022;-62
2021/10/18 03:59:00;;;;;;;25.80;17.17;;;9.00;98.50;;;;;;5030523;28;20585;-62
2021/10/18 04:01:31;;;;;;;24.15;17.58;;;8.90;98.50;;;;;;5015098;28;20074;-62
2021/10/18 04:03:57;;;;;;;21.63;16.83;;;8.90;98.60;;;;;;4996079;28;20074;-62
2021/10/18 04:06:22;;;;;;;21.80;17.17;;;8.90;98.60;;;;;;4997681;28;20038;-62
2021/10/18 04:08:50;;;;;;;21.60;16.85;;;8.90;98.70;;;;;;5014879;28;20165;-61
2021/10/18 04:11:16;;;;;;;22.50;17.58;;;8.90;98.70;;;;;;5014984;28;20025;-62
2021/10/18 04:13:41;;;;;;;23.27;16.52;;;8.80;98.70;;;;;;5015039;28;20466;-62
2021/10/18 04:16:07;;;;;;;23.25;16.98;;;8.80;98.70;;;;;;5030192;28;20105;-62
2021/10/18 04:18:32;;;;;;;22.25;16.88;;;8.80;98.70;;;;;;5014850;28;20389;-62
2021/10/18 04:20:59;;;;;;;22.60;16.20;;;8.80;98.80;;;;;;5014767;28;20030;-62
2021/10/18 04:23:26;;;;;;;19.58;16.50;;;8.80;98.70;;;;;;5014748;28;20482;-62
2021/10/18 04:25:52;;;;;;;20.55;16.00;;;8.80;98.80;;;;;;5029949;28;20072;-62
2021/10/18 04:28:35;;;;;;;;;;;;;;;;;;;;;
2021/10/18 04:31:01;;;;;;;23.50;16.17;;;8.80;98.80;;;;;;5014802;28;20026;-62
2021/10/18 04:33:27;;;;;;;19.85;16.02;;;8.80;98.80;;;;;;5014698;28;20018;-61
2021/10/18 04:36:08;;;;;;;;;;;;;;;;;;;;;
2021/10/18 04:38:34;;;;;;;19.58;15.27;;;8.80;98.80;;;;;;5014110;28;20026;-62
2021/10/18 04:40:59;;;;;;;22.23;16.35;;;8.80;98.70;;;;;;5014673;28;20426;-62
2021/10/18 04:43:25;;;;;;;18.25;15.68;;;8.90;98.70;;;;;;5014337;28;20406;-62
2021/10/18 04:45:50;;;;;;;22.95;16.40;;;8.90;98.70;;;;;;5014420;28;20030;-61
2021/10/18 04:48:16;;;;;;;21.50;15.98;;;8.80;98.60;;;;;;5014172;28;20461;-62
2021/10/18 04:50:41;;;;;;;25.60;17.85;;;8.80;98.60;;;;;;5014095;28;20112;-62
2021/10/18 04:53:07;;;;;;;22.50;17.42;;;8.80;98.70;;;;;;5014288;28;20026;-62
2021/10/18 04:55:33;;;;;;;23.73;17.23;;;8.80;98.70;;;;;;5014170;28;20029;-62
2021/10/18 04:58:02;;;;;;;23.80;16.75;;;8.70;98.80;;;;;;5012832;28;20030;-62
2021/10/18 05:00:30;;;;;;;21.98;17.73;;;8.70;98.90;;;;;;5013926;28;20046;-62
2021/10/18 05:02:56;;;;;;;25.55;18.25;;;8.70;99.20;;;;;;5013877;28;20493;-62
2021/10/18 05:05:22;;;;;;;28.55;20.00;;;8.70;98.90;;;;;;5013919;28;20044;-62
2021/10/18 05:08:06;;;;;;;25.33;18.00;;;8.70;99.00;;;;;;4996304;28;20037;-62
2021/10/18 05:10:33;;;;;;;22.50;17.63;;;8.80;99.00;;;;;;5013818;28;20034;-61
2021/10/18 05:12:59;;;;;;;25.65;18.25;;;8.70;99.10;;;;;;5013939;28;20018;-61
2021/10/18 05:15:25;;;;;;;23.67;18.05;;;8.80;99.10;;;;;;5013741;28;20053;-62
2021/10/18 05:17:50;;;;;;;24.70;17.48;;;8.80;99.10;;;;;;5013996;28;20084;-61
2021/10/18 05:20:16;;;;;;;24.27;17.35;;;8.80;99.10;;;;;;5013550;28;20490;-62
2021/10/18 05:22:42;;;;;;;21.45;16.23;;;8.80;99.10;;;;;;5013702;28;20038;-62
2021/10/18 05:25:08;;;;;;;19.80;15.82;;;8.80;99.10;;;;;;5000244;28;20081;-62
2021/10/18 05:27:35;;;;;;;22.40;16.75;;;8.80;99.10;;;;;;4994072;28;20014;-62
2021/10/18 05:30:01;;;;;;;23.48;16.38;;;8.80;99.10;;;;;;4992283;28;20501;-62
2021/10/18 05:32:26;;;;;;;25.17;17.60;;;8.70;99.10;;;;;;4993822;28;20034;-62
2021/10/18 05:34:52;;;;;;;22.60;16.33;;;8.70;99.10;;;;;;4993945;28;20051;-62
2021/10/18 05:37:17;;;;;;;22.75;15.98;;;8.70;99.10;;;;;;4993597;28;20034;-62
2021/10/18 05:39:43;;;;;;;23.63;16.33;;;8.70;99.20;;;;;;5001616;28;20045;-62
2021/10/18 05:42:16;;;;;;;22.13;18.27;;;8.60;99.20;;;;;;5013330;28;20026;-62
2021/10/18 05:48:06;;;;;;;22.70;19.30;;;8.60;99.40;;;;;;4894498;29;20037;-61
2021/10/18 05:50:39;;;;;;;25.95;19.42;;;8.50;99.60;;;;;;4913313;29;20051;-62
2021/10/18 05:53:05;;;;;;;23.15;17.90;;;8.50;99.70;;;;;;4974194;28;20092;-61
2021/10/18 05:55:30;;;;;;;25.25;19.92;;;8.50;99.80;;;;;;5013042;28;20030;-61
2021/10/18 05:58:03;;;;;;;26.48;19.52;;;8.50;99.80;;;;;;4994893;28;20034;-61
2021/10/18 06:00:32;;;;;;;25.20;19.45;;;8.50;99.90;;;;;;5012792;28;20140;-62
2021/10/18 06:03:43;;;;;;;;;;;;;;;;;;;;;
2021/10/18 06:06:48;;;;;;;26.85;19.85;;;8.50;99.90;;;;;;5012625;28;20025;-61
2021/10/18 06:09:14;;;;;;;30.45;20.70;;;8.50;99.90;;;;;;4993768;28;20034;-62
2021/10/18 06:11:40;;;;;;;28.45;19.90;;;8.40;99.90;;;;;;5007955;28;20033;-61
2021/10/18 06:14:05;;;;;;;29.63;19.85;;;8.40;99.90;;;;;;5010872;28;20108;-62
2021/10/18 06:16:31;;;;;;;27.73;20.55;;;8.40;99.90;;;;;;5001871;28;20482;-61
2021/10/18 06:18:56;;;;;;;24.48;20.15;;;8.40;99.90;;;;;;5001926;28;20076;-61
2021/10/18 06:21:24;;;;;;;24.33;19.42;;;8.40;99.90;;;;;;5005503;28;20079;-61
2021/10/18 06:23:50;;;;;;;26.90;19.80;;;8.40;99.90;;;;;;5011020;28;20028;-62
2021/10/18 06:26:15;;;;;;;27.55;21.02;;;8.40;99.90;;;;;;5005802;28;20026;-62
2021/10/18 06:28:41;;;;;;;31.75;20.90;;;8.40;99.90;;;;;;5005710;28;20423;-61
2021/10/18 06:31:07;;;;;;;33.05;22.25;;;8.40;99.90;;;;;;5010961;28;20509;-61
2021/10/18 06:33:33;;;;;;;27.98;20.55;;;8.30;99.90;;;;;;5004009;28;20072;-61
2021/10/18 06:35:59;;;;;;;28.15;20.70;;;8.30;99.90;;;;;;5003763;28;20022;-61
2021/10/18 06:38:25;;;;;;;26.92;20.92;;;8.30;99.90;;;;;;5006283;28;20507;-62
2021/10/18 06:40:51;;;;;;;28.58;21.65;;;8.40;99.90;;;;;;5006455;28;20032;-61
2021/10/18 06:43:18;;;;;;;29.33;21.63;;;8.40;99.90;;;;;;4986996;28;20471;-61
2021/10/18 06:46:04;;;;;;;28.45;21.98;;;8.40;99.90;;;;;;5007762;28;20036;-61
2021/10/18 06:48:44;;;;;;;27.08;20.15;;;8.40;99.90;;;;;;4985384;28;20026;-61
2021/10/18 06:51:10;;;;;;;27.70;21.27;;;8.40;99.90;;;;;;5002459;28;20022;-61
2021/10/18 06:53:37;;;;;;;27.17;21.35;;;8.40;99.90;;;;;;5009632;28;20025;-61
2021/10/18 06:56:04;;;;;;;30.70;21.60;;;8.40;99.90;;;;;;5007335;28;20018;-61
2021/10/18 06:58:30;;;;;;;30.42;21.48;;;8.40;99.90;;;;;;5009364;28;20014;-62
2021/10/18 07:00:57;;;;;;;33.80;21.92;;;8.50;99.90;;;;;;5008504;28;20050;-62
2021/10/18 07:03:23;;;;;;;29.70;23.13;;;8.50;99.90;;;;;;5008608;28;20503;-62
2021/10/18 07:05:48;;;;;;;30.75;20.52;;;8.60;99.90;;;;;;5010443;28;20512;-62
2021/10/18 07:08:16;;;;;;;31.95;22.30;;;8.60;99.90;;;;;;5011230;28;20022;-62
2021/10/18 07:10:42;;;;;;;28.13;20.67;;;8.60;99.90;;;;;;5015842;28;20117;-62
2021/10/18 07:13:09;;;;;;;28.52;21.02;;;8.70;99.90;;;;;;5016060;28;20439;-62
2021/10/18 07:15:38;;;;;;;28.05;20.55;;;8.70;99.90;;;;;;5016063;28;20014;-62
2021/10/18 07:18:06;;;;;;;28.55;21.55;;;8.70;99.90;;;;;;5016081;28;20018;-62
2021/10/18 07:20:32;;;;;;;29.70;21.63;;;8.70;99.90;;;;;;5015803;28;20048;-62
2021/10/18 07:23:00;;;;;;;30.25;22.02;;;8.80;99.90;;;;;;5015793;28;20029;-62
2021/10/18 07:25:37;;;;;;;29.73;21.88;;;8.80;99.90;;;;;;5015786;28;20026;-62
2021/10/18 07:29:10;;;;;;;29.63;21.08;;;8.80;99.90;;;;;;5031494;28;20038;-62
2021/10/18 07:31:35;;;;;;;26.90;20.20;;;8.90;99.90;;;;;;5015157;28;20436;-62
2021/10/18 07:34:11;;;;;;;26.35;20.20;;;8.90;99.90;;;;;;5015713;28;20022;-62
2021/10/18 07:36:37;;;;;;;27.38;20.27;;;8.90;99.90;;;;;;5015574;28;20067;-62
2021/10/18 07:39:07;;;;;;;29.13;21.27;;;9.00;99.90;;;;;;5013917;28;20026;-62
2021/10/18 07:41:33;;;;;;;29.17;21.75;;;9.00;99.90;;;;;;5010780;28;20034;-62
2021/10/18 07:43:59;;;;;;;25.95;19.80;;;9.00;99.90;;;;;;5010560;28;20022;-62
2021/10/18 07:46:27;;;;;;;31.52;21.45;;;9.10;99.90;;;;;;5013482;28;20041;-62
2021/10/18 07:48:53;;;;;;;26.48;21.45;;;9.20;99.90;;;;;;4999438;28;20038;-62
2021/10/18 07:52:04;;;;;;;;;;;;;;;;;;;;;
2021/10/18 07:54:53;;;;;;;28.65;20.92;;;9.30;99.90;;;;;;4975289;28;20041;-62
2021/10/18 07:57:19;;;;;;;30.08;21.08;;;9.40;99.90;;;;;;4995873;28;20022;-62
2021/10/18 07:59:44;;;;;;;29.45;20.13;;;9.40;99.90;;;;;;4994284;28;20497;-62
2021/10/18 08:02:10;;;;;;;27.42;20.38;;;9.50;99.80;;;;;;4980995;28;20045;-62
2021/10/18 08:04:36;;;;;;;29.02;21.15;;;9.50;99.60;;;;;;4996670;28;20040;-62
2021/10/18 08:07:01;;;;;;;25.70;20.17;;;9.60;99.50;;;;;;5010667;28;20032;-62
2021/10/18 08:09:27;;;;;;;28.42;21.05;;;9.60;99.50;;;;;;5011421;28;20080;-62
2021/10/18 08:11:55;;;;;;;23.58;17.90;;;9.70;99.40;;;;;;5012194;28;20026;-62
2021/10/18 08:14:21;;;;;;;26.40;19.92;;;9.80;99.20;;;;;;5010682;28;20026;-62
2021/10/18 08:16:47;;;;;;;23.63;18.92;;;9.80;99.10;;;;;;5010692;28;20068;-62
2021/10/18 08:19:12;;;;;;;28.15;20.77;;;9.90;99.00;;;;;;5013237;28;20030;-62
2021/10/18 08:21:38;;;;;;;21.83;18.08;;;9.90;98.80;;;;;;5013858;28;20087;-62
2021/10/18 08:24:04;;;;;;;25.13;19.85;;;10.00;98.90;;;;;;5014526;28;20033;-62
2021/10/18 08:26:29;;;;;;;26.38;19.73;;;10.10;98.70;;;;;;5014802;28;20076;-62
2021/10/18 08:28:55;;;;;;;24.30;18.58;;;10.20;98.60;;;;;;5014531;28;20367;-62
2021/10/18 08:31:20;;;;;;;25.90;20.08;;;10.20;98.40;;;;;;5013248;28;20034;-62
2021/10/18 08:33:46;;;;;;;22.75;18.13;;;10.30;98.10;;;;;;5014371;28;20022;-62
2021/10/18 08:36:12;;;;;;;25.83;18.80;;;10.40;97.80;;;;;;5013319;28;20046;-62
2021/10/18 08:38:47;;;;;;;23.67;18.58;;;10.50;97.90;;;;;;5014458;28;20097;-62
2021/10/18 08:50:41;;;;;;;24.48;18.75;;;10.90;97.20;;;;;;4840179;29;20040;-62
2021/10/18 08:56:24;;;;;;;22.45;18.55;;;11.10;96.40;;;;;;4785832;29;20046;-62
2021/10/18 08:58:50;;;;;;;21.40;17.13;;;11.10;96.40;;;;;;4901074;29;20044;-62
2021/10/18 09:01:16;;;;;;;24.70;19.52;;;11.20;96.20;;;;;;4964939;28;20046;-63
2021/10/18 09:03:50;;;;;;;24.80;18.30;;;11.30;96.10;;;;;;5013367;28;20030;-62
2021/10/18 09:06:19;;;;;;;23.92;18.20;;;11.50;95.70;;;;;;5013811;28;20057;-63
2021/10/18 09:08:49;;;;;;;22.80;18.45;;;11.60;95.70;;;;;;5013136;28;20030;-62
2021/10/18 09:11:28;;;;;;;21.23;17.23;;;11.80;95.60;;;;;;4994553;28;20027;-62
2021/10/18 09:13:54;;;;;;;23.57;18.43;;;11.90;95.20;;;;;;4997530;28;20022;-62
2021/10/18 09:16:31;;;;;;;25.00;17.92;;;12.00;94.80;;;;;;5012852;28;20260;-62
2021/10/18 09:19:00;;;;;;;28.13;19.48;;;12.10;94.40;;;;;;5013202;28;20409;-62
2021/10/18 09:21:47;;;;;;;27.08;19.20;;;12.10;94.30;;;;;;5011620;28;20532;-63
2021/10/18 09:24:31;;;;;;;22.50;17.83;;;12.20;93.80;;;;;;5012737;28;20397;-62
2021/10/18 09:27:00;;;;;;;24.10;19.23;;;12.20;93.70;;;;;;4999265;28;20105;-62
2021/10/18 09:29:54;;;;;;;24.05;17.83;;;12.30;93.70;;;;;;5012993;28;20029;-62
2021/10/18 09:32:27;;;;;;;22.40;17.73;;;12.30;93.30;;;;;;4992466;28;20426;-63
2021/10/18 09:35:05;;;;;;;22.90;18.08;;;12.40;93.40;;;;;;5012841;28;20045;-62
2021/10/18 09:37:41;;;;;;;23.30;17.88;;;12.50;93.20;;;;;;5013245;28;20020;-62
2021/10/18 09:40:07;;;;;;;22.77;18.48;;;12.60;93.10;;;;;;5012744;28;20485;-62
2021/10/18 09:42:32;;;;;;;22.10;17.38;;;12.70;93.00;;;;;;5012626;28;20036;-63
2021/10/18 10:51:43;;;;;;;19.23;15.23;;;15.30;80.60;;;;;;5016500;28;20037;-63
2021/10/18 10:54:10;;;;;;;19.23;14.35;;;16.10;80.70;;;;;;4992854;28;20025;-63
2021/10/18 10:56:51;;;;;;;17.23;14.00;;;16.80;77.80;;;;;;5014915;28;20052;-63
2021/10/18 10:59:28;;;;;;;15.88;13.13;;;17.40;75.30;;;;;;4998675;28;20030;-63
2021/10/18 11:02:06;;;;;;;18.60;14.63;;;18.50;72.20;;;;;;5010593;28;20054;-63
2021/10/18 11:04:31;;;;;;;17.35;13.43;;;19.30;68.70;;;;;;5002541;28;20388;-63
2021/10/18 11:06:59;;;;;;;16.52;13.27;;;20.20;66.10;;;;;;5011598;28;20097;-63
2021/10/18 11:09:47;;;;;;;19.40;14.30;;;20.50;63.20;;;;;;5012335;28;20501;-63
2021/10/18 11:13:00;;;;;;;16.33;14.10;;;20.20;62.50;;;;;;5010059;28;20474;-63
2021/10/18 11:15:25;;;;;;;16.73;14.20;;;19.20;64.00;;;;;;4998374;28;20041;-63
2021/10/18 11:17:55;;;;;;;18.10;13.70;;;18.10;66.60;;;;;;5007183;28;20027;-63
2021/10/18 11:21:10;;;;;;;16.55;12.77;;;17.50;68.40;;;;;;5004346;28;20057;-63
2021/10/18 11:23:57;;;;;;;16.73;12.00;;;17.20;70.20;;;;;;5006215;28;20022;-63
2021/10/18 11:26:23;;;;;;;16.08;12.30;;;17.30;72.10;;;;;;4988145;28;20025;-63
2021/10/18 11:28:54;;;;;;;14.20;12.20;;;17.70;72.20;;;;;;5008157;28;20022;-63
2021/10/18 11:32:14;;;;;;;17.52;14.57;;;18.30;68.90;;;;;;5005942;28;20026;-63
2021/10/18 11:34:40;;;;;;;15.60;12.82;;;18.60;66.60;;;;;;4994601;28;20038;-63
2021/10/18 11:37:07;;;;;;;14.48;12.40;;;18.70;67.00;;;;;;5008939;28;20026;-63
2021/10/18 11:39:33;;;;;;;17.77;12.60;;;18.90;65.80;;;;;;5003010;28;20097;-63
2021/10/18 11:41:58;;;;;;;14.57;12.68;;;19.10;64.60;;;;;;4986013;28;20027;-64
2021/10/18 11:44:54;;;;;;;19.15;13.98;;;18.90;65.20;;;;;;5004378;28;20529;-63
2021/10/18 11:47:26;;;;;;;14.38;12.38;;;19.00;65.30;;;;;;5011575;28;20482;-63
2021/10/18 11:50:07;;;;;;;16.73;14.05;;;18.90;65.50;;;;;;5007907;28;20097;-63
2021/10/18 11:52:33;;;;;;;15.48;13.13;;;18.90;64.70;;;;;;5005448;28;20479;-64
2021/10/18 11:55:21;;;;;;;15.50;13.00;;;18.80;65.20;;;;;;5009300;28;20029;-63
2021/10/18 11:57:48;;;;;;;15.80;13.48;;;18.70;66.00;;;;;;5009353;28;20038;-63
2021/10/18 12:00:40;;;;;;;15.55;13.50;;;18.30;65.90;;;;;;5006397;28;20104;-63
2021/10/18 12:03:07;;;;;;;16.67;13.95;;;18.10;68.10;;;;;;4992086;28;20626;-64
2021/10/18 12:05:44;;;;;;;18.05;13.25;;;18.00;67.50;;;;;;5003096;28;20501;-64
2021/10/18 12:08:54;;;;;;;;;;;;;;;;;;;;;
2021/10/18 12:14:51;;;;;;;16.00;13.20;;;17.30;70.10;;;;;;4910906;29;20096;-64
2021/10/18 12:17:17;;;;;;;15.93;13.38;;;17.10;71.20;;;;;;4928599;29;20035;-64
2021/10/18 12:19:42;;;;;;;17.23;13.15;;;17.00;71.20;;;;;;4990376;28;20438;-63
2021/10/18 12:22:28;;;;;;;16.35;14.45;;;16.80;72.70;;;;;;5008099;28;20378;-64
2021/10/18 12:25:01;;;;;;;16.27;13.20;;;16.70;73.30;;;;;;5007166;28;20413;-64
2021/10/18 12:27:27;;;;;;;20.40;15.05;;;16.70;74.50;;;;;;5006516;28;20025;-64
2021/10/18 12:29:53;;;;;;;16.75;13.15;;;16.70;74.70;;;;;;5003974;28;20049;-64
2021/10/18 12:32:19;;;;;;;15.10;13.13;;;16.70;74.10;;;;;;5008727;28;20037;-64
2021/10/18 12:34:45;;;;;;;16.88;14.07;;;16.80;74.40;;;;;;5013744;28;20096;-64
2021/10/18 12:37:47;;;;;;;18.83;12.85;;;16.80;74.00;;;;;;5014001;28;20496;-64
2021/10/18 12:40:19;;;;;;;19.83;14.25;;;16.80;74.00;;;;;;5003616;28;20117;-64
2021/10/18 12:43:25;;;;;;;16.92;14.20;;;16.60;74.50;;;;;;5013773;28;20033;-64
2021/10/18 12:46:20;;;;;;;19.00;14.43;;;16.50;74.80;;;;;;4993141;28;20042;-64
2021/10/18 12:49:02;;;;;;;18.15;14.02;;;16.30;75.60;;;;;;4996247;28;20500;-63
2021/10/18 12:51:41;;;;;;;18.48;13.52;;;16.20;75.50;;;;;;4995863;28;20041;-64
2021/10/18 12:54:27;;;;;;;19.00;14.63;;;16.20;77.00;;;;;;5013710;28;20026;-64
2021/10/18 13:00:27;;;;;;;19.45;15.02;;;16.30;76.70;;;;;;5012940;28;20026;-64
2021/10/18 13:02:53;;;;;;;20.77;15.02;;;16.40;76.30;;;;;;5013607;28;20049;-63
2021/10/18 13:05:24;;;;;;;21.30;14.68;;;16.50;76.10;;;;;;5013566;28;20022;-63
2021/10/18 13:07:52;;;;;;;18.00;14.43;;;16.60;75.40;;;;;;5013183;28;20077;-63
2021/10/18 13:10:37;;;;;;;17.60;14.25;;;16.80;76.30;;;;;;5012877;28;20010;-63
2021/10/18 13:13:08;;;;;;;16.38;13.43;;;16.90;75.70;;;;;;5013191;28;20406;-63
2021/10/18 13:15:34;;;;;;;17.23;13.82;;;16.90;74.90;;;;;;5012946;28;20378;-63
2021/10/18 13:18:00;;;;;;;18.17;14.18;;;16.80;75.20;;;;;;5013202;28;20018;-63
2021/10/18 13:20:27;;;;;;;20.05;14.85;;;16.60;75.60;;;;;;5013057;28;20367;-63
2021/10/18 13:22:55;;;;;;;19.02;14.50;;;16.50;76.20;;;;;;4994822;28;20609;-63
2021/10/18 13:25:24;;;;;;;16.05;13.77;;;16.30;75.80;;;;;;5012835;28;20018;-63
2021/10/18 13:27:49;;;;;;;18.37;13.63;;;16.30;76.60;;;;;;5012608;28;20032;-63
2021/10/18 13:30:15;;;;;;;18.35;13.73;;;16.40;77.30;;;;;;5013284;28;20018;-63
2021/10/18 13:32:43;;;;;;;18.70;12.85;;;16.50;75.40;;;;;;5012938;28;20030;-63
2021/10/18 13:35:09;;;;;;;14.95;11.85;;;16.40;75.10;;;;;;5012438;28;20049;-63
2021/10/18 13:37:42;;;;;;;15.45;11.73;;;16.50;76.50;;;;;;5012686;28;20033;-63
2021/10/18 13:40:10;;;;;;;18.17;12.90;;;16.70;76.40;;;;;;5012923;28;20101;-64
2021/10/18 13:42:37;;;;;;;16.05;13.05;;;16.90;75.00;;;;;;5013044;28;20029;-63
2021/10/18 13:45:03;;;;;;;16.33;13.32;;;17.00;74.60;;;;;;5012450;28;20533;-63
2021/10/18 13:47:29;;;;;;;17.98;12.95;;;17.40;74.00;;;;;;5012538;28;20041;-63
2021/10/18 13:49:55;;;;;;;15.85;12.65;;;17.60;72.90;;;;;;5012832;28;20037;-63
2021/10/18 13:52:21;;;;;;;15.50;12.65;;;17.50;72.60;;;;;;5012372;28;20434;-63
2021/10/18 13:55:47;;;;;;;17.55;12.45;;;17.40;73.50;;;;;;5011490;28;20076;-63
2021/10/18 13:58:11;;;;;;;16.15;12.85;;;17.20;73.60;;;;;;5012406;28;20037;-63
2021/10/18 14:00:37;;;;;;;17.80;12.73;;;16.90;74.90;;;;;;4994561;28;20018;-63
2021/10/18 14:06:17;;;;;;;17.10;13.07;;;16.70;76.60;;;;;;4988830;28;20465;-63
2021/10/18 14:08:43;;;;;;;15.68;12.90;;;16.60;77.00;;;;;;5006593;28;20045;-63
2021/10/18 14:11:10;;;;;;;15.23;12.00;;;16.70;77.60;;;;;;5007199;28;20117;-63
2021/10/18 14:13:36;;;;;;;16.80;12.38;;;16.90;77.50;;;;;;5008254;28;20537;-63
2021/10/18 14:16:02;;;;;;;16.90;12.00;;;17.00;76.00;;;;;;5007115;28;20042;-63
2021/10/18 14:18:28;;;;;;;17.48;11.88;;;17.20;75.00;;;;;;5006285;28;20105;-63
2021/10/18 14:20:54;;;;;;;15.73;12.32;;;17.20;74.60;;;;;;5006195;28;20250;-63
2021/10/18 14:23:20;;;;;;;16.15;12.00;;;17.10;74.30;;;;;;5003484;28;20028;-63